Time;durP1;ratioP1;P1;durP2;ratioP2;P2;SDS_P1;SDS_P2;PMS_P1;PMS_P2;Temp;Humidity;BMP_temperature;BMP_pressure;BME280_temperature;BME280_humidity;BME280_pressure;Samples;Min_cycle;Max_cycle;Signal;HPM_P1;HPM_P2
2022/02/25 07:55:12;;;;;;;28.87;13.40;;;;;;;-0.16;100.00;98528.45;1674335;85;21288;-70
2022/02/25 07:57:39;;;;;;;34.78;20.70;;;;;;;-0.15;100.00;98529.29;1681599;85;21071;-69
2022/02/25 08:00:09;;;;;;;28.67;16.53;;;;;;;-0.10;100.00;98521.24;1684641;84;21074;-71
2022/02/25 08:02:39;;;;;;;23.12;12.13;;;;;;;-0.05;100.00;98522.99;1661907;84;21592;-69
2022/02/25 08:05:08;;;;;;;22.90;12.33;;;;;;;0.01;100.00;98509.63;1662990;84;21540;-70
2022/02/25 08:07:35;;;;;;;18.13;9.93;;;;;;;0.05;100.00;98499.55;1674861;84;21494;-68
2022/02/25 08:10:04;;;;;;;27.57;13.37;;;;;;;0.10;100.00;98494.65;1686262;84;21529;-68
2022/02/25 08:12:33;;;;;;;26.93;13.90;;;;;;;0.13;100.00;98492.55;1667442;84;21598;-69
2022/02/25 08:15:02;;;;;;;27.57;14.40;;;;;;;0.14;100.00;98496.03;1676204;84;21012;-68
2022/02/25 08:17:29;;;;;;;27.17;13.30;;;;;;;0.15;100.00;98497.22;1661174;84;21074;-70
2022/02/25 08:19:56;;;;;;;24.27;12.60;;;;;;;0.18;100.00;98488.14;1671253;85;21032;-69
2022/02/25 08:22:23;;;;;;;21.27;11.47;;;;;;;0.22;100.00;98480.72;1687955;84;21603;-68
2022/02/25 08:24:50;;;;;;;21.33;11.20;;;;;;;0.27;100.00;98469.16;1677692;84;21034;-69
2022/02/25 08:27:17;;;;;;;19.83;11.20;;;;;;;0.30;100.00;98464.39;1682042;85;21024;-69
2022/02/25 08:29:44;;;;;;;55.77;49.93;;;;;;;0.33;100.00;98456.11;1634717;87;21086;-68
2022/02/25 08:32:12;;;;;;;19.00;10.83;;;;;;;0.35;100.00;98450.18;1675517;84;21003;-71
2022/02/25 08:34:39;;;;;;;17.97;10.33;;;;;;;0.34;100.00;98444.50;1626212;87;21076;-69
2022/02/25 08:37:07;;;;;;;16.90;9.07;;;;;;;0.34;100.00;98448.99;1634680;87;21144;-68
2022/02/25 08:39:34;;;;;;;44.10;22.53;;;;;;;0.34;100.00;98451.15;1623587;87;21022;-68
2022/02/25 08:42:01;;;;;;;21.43;10.93;;;;;;;0.36;100.00;98451.84;1610239;88;21062;-69
2022/02/25 08:44:28;;;;;;;17.67;9.03;;;;;;;0.38;100.00;98447.70;1609098;87;21148;-69
2022/02/25 08:46:55;;;;;;;24.57;11.53;;;;;;;0.37;100.00;98444.22;1611566;87;21093;-68
2022/02/25 08:49:22;;;;;;;16.70;8.50;;;;;;;0.37;100.00;98448.20;1611870;87;21571;-68
2022/02/25 08:51:49;;;;;;;13.70;7.77;;;;;;;0.40;100.00;98445.73;1604554;88;21563;-69
2022/02/25 08:54:18;;;;;;;15.00;8.30;;;;;;;0.41;100.00;98433.27;1614176;88;21595;-69
2022/02/25 08:56:45;;;;;;;21.97;10.00;;;;;;;0.39;100.00;98429.45;1627123;87;21566;-69
2022/02/25 08:59:12;;;;;;;21.27;9.93;;;;;;;0.42;100.00;98421.66;1610443;87;21114;-69
2022/02/25 09:01:40;;;;;;;18.63;9.87;;;;;;;0.48;100.00;98422.39;1604091;88;21058;-68
2022/02/25 09:04:08;;;;;;;21.57;11.13;;;;;;;0.53;100.00;98412.16;1628079;87;21105;-69
2022/02/25 09:09:05;;;;;;;16.33;8.67;;;;;;;0.60;100.00;98397.28;1562143;90;21553;-70
2022/02/25 09:11:38;;;;;;;16.23;9.00;;;;;;;0.62;100.00;98402.45;1563311;91;21103;-68
2022/02/25 09:14:06;;;;;;;23.47;12.20;;;;;;;0.63;100.00;98394.33;1563454;91;21172;-69
2022/02/25 09:16:34;;;;;;;17.33;8.77;;;;;;;0.64;100.00;98391.17;1563058;91;21115;-69
2022/02/25 09:19:02;;;;;;;16.17;8.67;;;;;;;0.66;100.00;98394.04;1562604;91;21122;-69
2022/02/25 09:21:31;;;;;;;16.90;8.70;;;;;;;0.64;100.00;98385.84;1608554;88;21122;-68
2022/02/25 09:23:58;;;;;;;23.27;11.47;;;;;;;0.63;100.00;98391.67;1617309;88;21091;-68
2022/02/25 09:26:25;;;;;;;14.83;8.37;;;;;;;0.69;100.00;98378.27;1611820;88;21059;-70
2022/02/25 09:28:54;;;;;;;15.33;8.17;;;;;;;0.73;100.00;98379.66;1598586;89;21091;-69
2022/02/25 09:31:20;;;;;;;18.60;9.43;;;;;;;0.74;100.00;98376.85;1609728;88;21058;-68
2022/02/25 09:33:47;;;;;;;18.80;9.43;;;;;;;0.76;100.00;98375.34;1614882;88;21116;-68
2022/02/25 09:36:16;;;;;;;15.03;8.47;;;;;;;0.78;100.00;98380.05;1618512;88;21075;-68
2022/02/25 09:38:43;;;;;;;15.50;8.80;;;;;;;0.77;100.00;98380.20;1601312;88;21031;-68
2022/02/25 09:41:10;;;;;;;14.97;8.63;;;;;;;0.78;100.00;98386.70;1614562;88;21118;-69
2022/02/25 09:43:38;;;;;;;15.43;8.10;;;;;;;0.81;100.00;98378.91;1617953;88;21631;-69
2022/02/25 09:46:06;;;;;;;22.53;14.80;;;;;;;0.86;100.00;98373.47;1619718;88;21075;-70
2022/02/25 09:48:40;;;;;;;15.97;8.40;;;;;;;0.87;100.00;98366.34;1625529;88;21102;-69
2022/02/25 09:51:08;;;;;;;20.60;9.67;;;;;;;0.88;100.00;98350.20;1617320;89;21091;-70
2022/02/25 09:53:39;;;;;;;18.53;10.23;;;;;;;0.91;100.00;98338.44;1612405;88;21053;-69
2022/02/25 09:56:06;;;;;;;20.53;11.67;;;;;;;0.97;100.00;98341.80;1609713;89;21067;-71
2022/02/25 09:58:33;;;;;;;23.53;12.73;;;;;;;1.03;100.00;98346.54;1611353;88;21117;-68
2022/02/25 10:01:01;;;;;;;19.20;10.40;;;;;;;1.07;100.00;98341.24;1611739;89;21111;-69
2022/02/25 10:03:30;;;;;;;20.13;11.00;;;;;;;1.11;100.00;98329.30;1614368;88;21067;-70
2022/02/25 10:06:09;;;;;;;16.57;8.73;;;;;;;1.18;100.00;98322.04;1637141;85;21145;-69
2022/02/25 10:08:38;;;;;;;17.57;9.53;;;;;;;1.22;100.00;98318.07;1632525;87;21260;-70
2022/02/25 10:11:05;;;;;;;29.57;12.57;;;;;;;1.24;100.00;98314.75;1634698;87;21098;-69
2022/02/25 10:13:33;;;;;;;23.93;12.13;;;;;;;1.24;100.00;98307.63;1636763;85;21015;-70
2022/02/25 10:16:03;;;;;;;18.53;9.87;;;;;;;1.30;100.00;98303.50;1610050;87;21102;-69
2022/02/25 10:18:32;;;;;;;21.83;11.93;;;;;;;1.31;100.00;98300.69;1591588;89;21063;-70
2022/02/25 10:21:13;;;;;;;23.87;11.77;;;;;;;1.34;100.00;98300.86;1593953;88;21125;-70
2022/02/25 10:23:44;;;;;;;27.83;13.33;;;;;;;1.40;100.00;98294.07;1603626;88;21103;-70
2022/02/25 10:26:16;;;;;;;19.63;10.07;;;;;;;1.44;100.00;98292.79;1602978;88;21552;-69
2022/02/25 10:28:49;;;;;;;17.77;8.73;;;;;;;1.45;100.00;98283.31;1604317;88;21078;-71
2022/02/25 10:31:30;;;;;;;21.90;10.23;;;;;;;1.44;100.00;98284.30;1610545;88;21086;-69
2022/02/25 10:34:14;;;;;;;16.90;7.93;;;;;;;1.45;100.00;98289.12;1614648;88;21618;-70
2022/02/25 10:36:48;;;;;;;20.93;9.40;;;;;;;1.45;100.00;98288.64;1612863;87;21061;-69
2022/02/25 10:39:29;;;;;;;20.70;10.07;;;;;;;1.45;100.00;98286.45;1609857;88;21059;-69
2022/02/25 10:42:12;;;;;;;19.47;8.80;;;;;;;1.39;100.00;98284.43;1600047;89;21015;-69
2022/02/25 10:44:42;;;;;;;;;;;;;;;1.35;100.00;98285.23;1617225;87;21136;-69
2022/02/25 10:47:20;;;;;;;19.20;8.90;;;;;;;1.24;100.00;98312.95;1607230;88;20181;-69
2022/02/25 10:49:49;;;;;;;18.60;8.67;;;;;;;1.19;100.00;98330.34;1611651;87;21538;-67
2022/02/25 10:52:31;;;;;;;18.73;8.33;;;;;;;1.12;100.00;98342.13;1637764;87;21056;-69
2022/02/25 10:54:59;;;;;;;16.37;8.03;;;;;;;1.09;100.00;98343.25;1636190;87;21115;-68
2022/02/25 10:57:27;;;;;;;19.47;8.40;;;;;;;1.11;100.00;98342.60;1642400;87;21078;-70
2022/02/25 10:59:56;;;;;;;33.87;13.57;;;;;;;1.12;100.00;98340.30;1637338;87;21098;-69
2022/02/25 11:02:37;;;;;;;18.00;8.70;;;;;;;1.11;100.00;98335.12;1634523;87;21080;-70
2022/02/25 11:05:20;;;;;;;35.77;14.70;;;;;;;1.09;100.00;98342.42;1652359;84;21523;-70
2022/02/25 11:07:49;;;;;;;;;;;;;;;1.09;100.00;98349.91;1689019;84;21028;-69
2022/02/25 11:10:18;;;;;;;38.07;16.17;;;;;;;1.09;100.00;98341.92;1678432;84;20140;-69
2022/02/25 11:12:46;;;;;;;16.87;8.53;;;;;;;1.09;100.00;98350.41;1683049;84;21075;-68
2022/02/25 11:15:22;;;;;;;18.10;9.33;;;;;;;1.10;100.00;98352.09;1673861;84;21094;-69
2022/02/25 11:17:49;;;;;;;24.60;12.30;;;;;;;1.13;100.00;98350.44;1677857;84;21059;-69
2022/02/25 11:20:20;;;;;;;22.03;11.33;;;;;;;1.16;100.00;98339.49;1678786;84;21089;-71
2022/02/25 11:22:50;;;;;;;27.07;13.57;;;;;;;1.18;100.00;98339.34;1650271;86;21633;-68
2022/02/25 11:25:17;;;;;;;40.30;22.17;;;;;;;1.20;100.00;98344.02;1637407;86;21101;-70
2022/02/25 11:27:45;;;;;;;28.53;16.93;;;;;;;1.19;100.00;98339.67;1636339;86;21078;-70
2022/02/25 11:30:26;;;;;;;33.10;19.40;;;;;;;1.16;100.00;98347.48;1644380;86;22578;-70
2022/02/25 11:33:00;;;;;;;28.63;16.87;;;;;;;1.13;100.00;98339.32;1641167;86;21077;-69
2022/02/25 11:35:31;;;;;;;25.80;14.80;;;;;;;1.08;100.00;98339.41;1565664;89;21129;-70
2022/02/25 11:38:02;;;;;;;32.17;19.17;;;;;;;1.10;100.00;98345.44;1556695;91;21079;-68
2022/02/25 11:40:53;;;;;;;48.80;29.57;;;;;;;1.12;100.00;98338.14;1515319;93;21642;-70
2022/02/25 11:43:51;;;;;;;30.87;19.63;;;;;;;1.15;100.00;98339.14;1571032;91;21248;-69
2022/02/25 11:46:32;;;;;;;45.63;31.00;;;;;;;1.18;100.00;98334.02;1576652;90;21510;-68
2022/02/25 11:49:19;;;;;;;57.80;49.87;;;;;;;1.13;100.00;98326.48;1538309;93;21638;-70
2022/02/25 11:51:54;;;;;;;76.53;65.67;;;;;;;1.07;100.00;98336.42;1541252;93;21128;-70
2022/02/25 11:57:08;;;;;;;74.57;66.50;;;;;;;0.99;100.00;98347.81;1529676;93;21119;-69
2022/02/25 11:59:40;;;;;;;22.73;15.65;;;;;;;0.98;100.00;98344.82;1524710;93;21125;-70
2022/02/25 12:02:16;;;;;;;23.42;16.32;;;;;;;0.95;100.00;98342.45;1524493;93;21049;-70
2022/02/25 12:04:58;;;;;;;21.47;13.43;;;;;;;0.94;100.00;98342.13;1506141;94;21134;-70
2022/02/25 12:07:40;;;;;;;19.10;11.67;;;;;;;0.94;100.00;98334.97;1469622;96;21178;-69
2022/02/25 12:10:16;;;;;;;16.42;8.65;;;;;;;0.97;100.00;98325.84;1502830;95;21101;-70
2022/02/25 12:13:05;;;;;;;17.30;10.60;;;;;;;0.97;100.00;98327.67;1505085;94;21134;-70
2022/02/25 12:15:35;;;;;;;19.03;12.00;;;;;;;0.91;100.00;98328.61;1506668;95;21128;-70
2022/02/25 12:18:06;;;;;;;18.80;10.67;;;;;;;0.91;100.00;98312.65;1509064;95;21384;-70
2022/02/25 12:20:44;;;;;;;17.50;10.13;;;;;;;0.93;100.00;98309.84;1473224;96;21161;-69
2022/02/25 12:23:15;;;;;;;15.33;9.17;;;;;;;0.93;100.00;98304.02;1468267;97;21114;-70
2022/02/25 12:25:49;;;;;;;19.77;12.77;;;;;;;0.89;100.00;98307.98;1463854;97;21197;-69
2022/02/25 12:28:34;;;;;;;35.53;28.17;;;;;;;0.91;100.00;98302.00;1468371;98;21168;-69
2022/02/25 12:31:12;;;;;;;17.90;11.50;;;;;;;0.95;100.00;98295.38;1439373;98;21077;-68
2022/02/25 12:34:03;;;;;;;15.97;10.17;;;;;;;1.01;100.00;98301.94;1487380;94;21650;-69
2022/02/25 12:36:37;;;;;;;16.27;10.60;;;;;;;0.99;100.00;98297.74;1523218;93;21078;-69
2022/02/25 12:39:18;;;;;;;17.27;10.90;;;;;;;0.97;100.00;98293.90;1531232;94;21120;-69
2022/02/25 12:41:56;;;;;;;20.87;10.37;;;;;;;0.96;100.00;98301.56;1487357;95;21164;-69
2022/02/25 12:44:33;;;;;;;14.73;9.00;;;;;;;0.93;100.00;98292.03;1529848;92;21597;-69
2022/02/25 12:47:08;;;;;;;16.93;10.47;;;;;;;0.94;100.00;98296.38;1527862;93;21101;-69
2022/02/25 12:49:37;;;;;;;21.83;13.40;;;;;;;0.96;100.00;98296.23;1527191;93;21090;-68
2022/02/25 12:52:07;;;;;;;21.27;12.57;;;;;;;0.95;100.00;98305.20;1529399;93;21082;-68
2022/02/25 12:54:35;;;;;;;20.93;11.77;;;;;;;0.91;100.00;98314.48;1502432;93;21091;-69
2022/02/25 12:57:07;;;;;;;19.20;11.03;;;;;;;0.88;100.00;98313.45;1496290;95;21141;-70
2022/02/25 12:59:46;;;;;;;25.63;15.77;;;;;;;0.85;100.00;98323.05;1492595;96;21143;-69
2022/02/25 13:02:18;;;;;;;45.90;23.73;;;;;;;0.86;100.00;98320.25;1464477;97;21097;-69
2022/02/25 13:04:52;;;;;;;67.32;31.48;;;;;;;0.88;100.00;98318.27;1506665;95;21102;-69
2022/02/25 13:07:22;;;;;;;60.97;31.57;;;;;;;0.83;100.00;98327.19;1426294;99;21257;-68
2022/02/25 13:09:50;;;;;;;52.70;26.97;;;;;;;0.83;100.00;98337.01;1431790;99;21249;-68
2022/02/25 13:12:20;;;;;;;30.20;17.07;;;;;;;0.80;100.00;98331.98;1404799;101;21145;-69
2022/02/25 13:14:52;;;;;;;26.23;13.93;;;;;;;0.78;100.00;98332.16;1430066;99;21175;-69
2022/02/25 13:17:25;;;;;;;16.73;9.47;;;;;;;0.79;100.00;98343.12;1413437;101;21144;-68
2022/02/25 13:20:03;;;;;;;15.40;8.77;;;;;;;0.81;100.00;98336.33;1415495;101;21182;-68
2022/02/25 13:22:38;;;;;;;19.27;10.73;;;;;;;0.80;100.00;98338.63;1421087;99;21154;-69
2022/02/25 13:25:24;;;;;;;15.83;8.90;;;;;;;0.80;100.00;98339.97;1417786;98;21089;-68
2022/02/25 13:28:01;;;;;;;13.80;7.80;;;;;;;0.79;100.00;98342.30;1340679;105;21193;-68
2022/02/25 13:33:07;;;;;;;13.27;8.40;;;;;;;0.74;100.00;98336.09;1325546;108;21220;-70
2022/02/25 13:35:59;;;;;;;14.17;7.53;;;;;;;0.74;100.00;98336.95;1325642;107;21175;-72
2022/02/25 13:38:36;;;;;;;13.75;7.87;;;;;;;0.77;100.00;98341.11;1317325;105;21295;-70
2022/02/25 13:41:09;;;;;;;13.67;7.80;;;;;;;0.81;100.00;98337.66;1330283;107;21756;-69
2022/02/25 13:43:46;;;;;;;16.60;8.90;;;;;;;0.83;100.00;98332.52;1307818;108;21175;-71
2022/02/25 13:46:34;;;;;;;16.03;8.67;;;;;;;0.89;100.00;98321.78;1295894;109;21255;-72
2022/02/25 13:55:12;;;;;;;11.10;6.47;;;;;;;0.97;100.00;98329.00;1268584;113;21202;-71
2022/02/25 13:57:44;;;;;;;8.83;5.50;;;;;;;0.92;100.00;98332.97;1275916;113;21715;-72
2022/02/25 14:00:29;;;;;;;8.30;5.40;;;;;;;0.92;100.00;98333.44;1307094;108;21241;-72
2022/02/25 14:02:57;;;;;;;8.70;5.33;;;;;;;0.92;100.00;98336.09;1297193;110;21301;-68
2022/02/25 14:05:36;;;;;;;8.13;5.60;;;;;;;0.93;100.00;98341.27;1344099;104;21174;-72
2022/02/25 14:08:08;;;;;;;8.83;5.90;;;;;;;0.98;100.00;98335.51;1373161;103;21206;-70
2022/02/25 14:10:40;;;;;;;11.20;6.30;;;;;;;1.04;100.00;98326.90;1358005;104;21211;-71
2022/02/25 14:13:15;;;;;;;8.90;5.20;;;;;;;1.11;100.00;98313.83;1353669;105;21123;-71
2022/02/25 14:15:43;;;;;;;10.23;5.73;;;;;;;1.17;100.00;98309.70;1339238;105;21736;-70
2022/02/25 14:18:11;;;;;;;11.40;5.87;;;;;;;1.22;100.00;98303.42;1349006;105;21244;-69
2022/02/25 14:20:41;;;;;;;13.13;6.90;;;;;;;1.25;100.00;98299.13;1389399;102;21169;-70
2022/02/25 14:23:11;;;;;;;13.50;7.87;;;;;;;1.26;100.00;98294.16;1384901;102;21128;-69
2022/02/25 14:25:40;;;;;;;15.53;8.43;;;;;;;1.25;100.00;98300.46;1391552;103;21109;-69
2022/02/25 14:28:16;;;;;;;14.53;7.20;;;;;;;1.20;100.00;98299.58;1405542;95;21166;-70
2022/02/25 14:30:52;;;;;;;13.77;7.00;;;;;;;1.19;100.00;98299.73;1429199;99;21165;-68
2022/02/25 14:33:23;;;;;;;12.67;7.10;;;;;;;1.22;100.00;98303.42;1444197;97;21142;-67
2022/02/25 14:36:13;;;;;;;13.57;7.00;;;;;;;1.28;100.00;98302.83;1454467;98;21109;-68
2022/02/25 14:38:47;;;;;;;10.60;5.50;;;;;;;1.32;100.00;98297.02;1434244;100;21195;-69
2022/02/25 14:41:15;;;;;;;11.67;6.80;;;;;;;1.35;100.00;98303.02;1420538;99;21183;-68
2022/02/25 14:43:42;;;;;;;13.23;6.60;;;;;;;1.33;100.00;98300.54;1414786;101;21166;-67
2022/02/25 14:46:11;;;;;;;15.00;6.70;;;;;;;1.32;100.00;98301.52;1422430;101;21104;-68
2022/02/25 14:48:38;;;;;;;15.77;7.40;;;;;;;1.33;100.00;98300.54;1436724;99;21140;-70
2022/02/25 14:51:05;;;;;;;11.47;6.10;;;;;;;1.35;100.00;98305.21;1409035;99;21683;-70
2022/02/25 14:53:33;;;;;;;15.87;7.23;;;;;;;1.33;100.00;98305.36;1423048;99;21164;-69
2022/02/25 14:56:00;;;;;;;14.20;6.93;;;;;;;1.32;100.00;98306.84;1432129;100;21163;-70
2022/02/25 14:58:27;;;;;;;14.40;6.63;;;;;;;1.30;100.00;98311.49;1426318;100;21124;-70
2022/02/25 15:00:54;;;;;;;9.83;5.90;;;;;;;1.28;100.00;98319.63;1425868;99;21655;-70
2022/02/25 15:03:22;;;;;;;14.53;6.90;;;;;;;1.29;100.00;98313.33;1401763;101;21143;-70
2022/02/25 15:05:49;;;;;;;16.47;7.60;;;;;;;1.30;100.00;98311.49;1427693;99;21171;-69
2022/02/25 15:08:17;;;;;;;12.80;6.60;;;;;;;1.30;100.00;98315.48;1442966;98;21138;-69
2022/02/25 15:10:45;;;;;;;12.33;6.77;;;;;;;1.28;100.00;98318.30;1440140;98;21666;-70
2022/02/25 15:13:12;;;;;;;9.53;5.10;;;;;;;1.28;100.00;98325.46;1447235;96;21167;-69
2022/02/25 15:15:41;;;;;;;20.17;9.27;;;;;;;1.27;100.00;98337.09;1478965;94;21137;-70
2022/02/25 15:18:08;;;;;;;26.87;13.67;;;;;;;1.22;100.00;98344.23;1532542;93;21165;-70
2022/02/25 15:20:35;;;;;;;40.40;21.00;;;;;;;1.20;100.00;98352.01;1546177;90;21111;-70
2022/02/25 15:23:03;;;;;;;29.87;12.67;;;;;;;1.17;100.00;98349.64;1568025;90;21151;-70
2022/02/25 15:25:31;;;;;;;20.27;9.40;;;;;;;1.16;100.00;98356.80;1571602;90;21570;-69
2022/02/25 15:27:58;;;;;;;18.37;7.77;;;;;;;1.12;100.00;98366.09;1585797;89;21084;-71
2022/02/25 15:30:26;;;;;;;16.40;7.30;;;;;;;1.09;100.00;98377.86;1572937;90;21124;-70
2022/02/25 15:32:53;;;;;;;22.33;8.60;;;;;;;1.05;100.00;98374.34;1573432;90;21128;-69
2022/02/25 15:35:20;;;;;;;22.83;8.70;;;;;;;1.00;100.00;98376.11;1583966;90;21094;-69
2022/02/25 15:37:47;;;;;;;33.93;12.40;;;;;;;0.99;100.00;98375.76;1592452;86;21106;-69
2022/02/25 15:40:14;;;;;;;23.80;9.80;;;;;;;0.97;100.00;98383.56;1641677;86;21034;-69
2022/02/25 15:42:42;;;;;;;18.43;7.60;;;;;;;0.93;100.00;98377.70;1639636;86;21381;-69
2022/02/25 15:45:10;;;;;;;23.30;9.17;;;;;;;0.88;100.00;98390.63;1646637;86;21476;-69
2022/02/25 15:47:38;;;;;;;31.23;11.23;;;;;;;0.84;100.00;98394.58;1651620;86;21071;-69
2022/02/25 15:50:06;;;;;;;16.43;7.80;;;;;;;0.84;100.00;98399.90;1656244;86;21041;-70
2022/02/25 15:52:34;;;;;;;13.30;6.50;;;;;;;0.81;100.00;98391.70;1656115;86;21078;-70
2022/02/25 15:55:01;;;;;;;11.87;6.30;;;;;;;0.78;100.00;98393.36;1645557;86;21044;-69
2022/02/25 15:57:28;;;;;;;13.33;6.77;;;;;;;0.75;100.00;98385.16;1648443;86;21067;-69
2022/02/25 15:59:59;;;;;;;14.30;6.53;;;;;;;0.73;100.00;98393.79;1639272;86;21083;-69
2022/02/25 16:02:25;;;;;;;15.77;7.90;;;;;;;0.70;100.00;98395.41;1639005;86;21042;-71
2022/02/25 16:04:53;;;;;;;12.73;7.00;;;;;;;0.69;100.00;98397.75;1648588;85;21090;-70
2022/02/25 16:07:21;;;;;;;14.10;7.47;;;;;;;0.68;100.00;98400.05;1648449;85;21934;-71
2022/02/25 16:09:47;;;;;;;15.27;7.90;;;;;;;0.69;100.00;98403.53;1653226;86;21051;-69
2022/02/25 16:12:16;;;;;;;15.57;8.40;;;;;;;0.69;100.00;98392.42;1637246;85;21070;-69
2022/02/25 16:14:45;;;;;;;21.10;9.87;;;;;;;0.70;100.00;98401.23;1649356;84;21087;-70
2022/02/25 16:17:12;;;;;;;22.10;10.63;;;;;;;0.72;100.00;98392.61;1654795;86;21032;-70
2022/02/25 16:19:39;;;;;;;21.53;10.07;;;;;;;0.75;100.00;98390.48;1641517;86;21063;-70
2022/02/25 16:22:06;;;;;;;18.50;9.60;;;;;;;0.79;100.00;98381.70;1663858;85;21591;-70
2022/02/25 16:24:33;;;;;;;20.40;9.47;;;;;;;0.85;100.00;98373.14;1663349;86;21040;-70
2022/02/25 16:27:03;;;;;;;24.80;11.27;;;;;;;0.89;100.00;98363.86;1657204;85;21059;-69
2022/02/25 16:29:31;;;;;;;22.67;11.37;;;;;;;0.91;100.00;98364.55;1647650;86;21579;-71
2022/02/25 16:31:58;;;;;;;20.77;10.67;;;;;;;0.94;100.00;98350.94;1621058;88;21031;-71
2022/02/25 16:34:25;;;;;;;18.87;10.20;;;;;;;0.97;100.00;98340.98;1656462;86;21056;-70
2022/02/25 16:36:52;;;;;;;20.33;10.70;;;;;;;0.98;100.00;98338.67;1646236;85;21064;-70
2022/02/25 16:39:19;;;;;;;22.87;11.40;;;;;;;1.01;100.00;98329.03;1657387;85;21611;-70
2022/02/25 16:41:46;;;;;;;23.93;11.23;;;;;;;1.04;100.00;98330.06;1655101;85;21072;-70
2022/02/25 16:44:13;;;;;;;23.03;11.83;;;;;;;1.04;100.00;98324.23;1664040;86;21068;-71
2022/02/25 16:46:41;;;;;;;21.60;10.37;;;;;;;1.07;100.00;98321.78;1654833;86;21060;-70
2022/02/25 16:49:08;;;;;;;22.73;11.50;;;;;;;1.07;100.00;98319.95;1666034;86;21068;-69
2022/02/25 16:51:36;;;;;;;25.87;12.83;;;;;;;1.06;100.00;98323.62;1645005;86;21072;-70
2022/02/25 16:54:04;;;;;;;22.83;11.93;;;;;;;1.07;100.00;98319.95;1647501;86;21048;-70
2022/02/25 16:56:31;;;;;;;23.27;11.80;;;;;;;1.09;100.00;98314.48;1643493;86;21141;-70
2022/02/25 16:59:00;;;;;;;26.57;13.93;;;;;;;1.10;100.00;98309.00;1631450;86;21095;-71
2022/02/25 17:01:27;;;;;;;26.60;14.20;;;;;;;1.10;100.00;98308.17;1658306;86;21044;-70
2022/02/25 17:03:55;;;;;;;31.80;15.80;;;;;;;1.11;100.00;98315.16;1651513;86;21067;-70
2022/02/25 17:06:22;;;;;;;29.07;14.50;;;;;;;1.12;100.00;98319.50;1588115;89;21057;-70
2022/02/25 17:08:49;;;;;;;27.23;14.53;;;;;;;1.10;100.00;98312.17;1583854;88;21144;-70
2022/02/25 17:11:16;;;;;;;32.23;15.23;;;;;;;1.09;100.00;98317.97;1583082;89;21083;-70
2022/02/25 17:13:44;;;;;;;27.07;13.70;;;;;;;1.11;100.00;98315.98;1617000;87;21514;-71
2022/02/25 17:16:11;;;;;;;28.77;14.83;;;;;;;1.14;100.00;98313.52;1663184;86;21067;-71
2022/02/25 17:18:38;;;;;;;26.63;14.13;;;;;;;1.14;100.00;98314.35;1645781;86;21034;-70
2022/02/25 17:21:05;;;;;;;27.47;14.23;;;;;;;1.17;100.00;98309.23;1597193;89;21130;-70
2022/02/25 17:23:32;;;;;;;29.80;15.63;;;;;;;1.17;100.00;98307.91;1607644;87;21093;-70
2022/02/25 17:25:59;;;;;;;26.03;14.40;;;;;;;1.19;100.00;98311.72;1622464;87;21543;-70
2022/02/25 17:28:26;;;;;;;30.93;15.13;;;;;;;1.19;100.00;98298.41;1617663;88;21064;-70
2022/02/25 17:30:53;;;;;;;27.33;15.17;;;;;;;1.18;100.00;98294.91;1623104;87;21498;-70
2022/02/25 17:33:20;;;;;;;28.47;15.07;;;;;;;1.20;100.00;98294.77;1607027;89;21114;-71
2022/02/25 17:35:46;;;;;;;33.20;17.90;;;;;;;1.20;100.00;98297.42;1599150;89;21137;-71
2022/02/25 17:38:14;;;;;;;30.53;17.27;;;;;;;1.14;100.00;98295.72;1657023;86;21067;-70
2022/02/25 17:40:41;;;;;;;30.13;16.17;;;;;;;1.12;100.00;98297.70;1653422;86;21031;-71
2022/02/25 17:43:08;;;;;;;30.20;15.23;;;;;;;1.10;100.00;98306.34;1648814;86;21161;-70
2022/02/25 17:45:34;;;;;;;31.27;18.13;;;;;;;1.11;100.00;98307.17;1616087;87;21082;-71
2022/02/25 17:48:01;;;;;;;31.30;17.43;;;;;;;1.09;100.00;98308.65;1624405;88;21126;-69
2022/02/25 17:50:29;;;;;;;29.67;16.83;;;;;;;1.09;100.00;98312.64;1579160;89;21093;-70
2022/02/25 17:52:55;;;;;;;31.17;16.97;;;;;;;1.09;100.00;98317.14;1589650;89;21054;-70
2022/02/25 17:55:22;;;;;;;31.20;17.03;;;;;;;1.10;100.00;98322.81;1654273;86;21558;-70
2022/02/25 17:57:49;;;;;;;27.80;15.23;;;;;;;1.11;100.00;98320.48;1652182;86;21091;-70
2022/02/25 18:00:17;;;;;;;26.67;15.30;;;;;;;1.13;100.00;98319.83;1603701;88;21142;-69
2022/02/25 18:02:44;;;;;;;28.03;15.27;;;;;;;1.15;100.00;98317.84;1654123;86;21078;-71
2022/02/25 18:05:11;;;;;;;28.40;15.63;;;;;;;1.17;100.00;98318.55;1615736;88;21522;-70
2022/02/25 18:07:39;;;;;;;26.20;14.10;;;;;;;1.18;100.00;98310.89;1604117;89;21102;-71
2022/02/25 18:10:08;;;;;;;29.53;15.43;;;;;;;1.18;100.00;98318.05;1605087;89;21050;-70
2022/02/25 18:12:36;;;;;;;24.93;13.13;;;;;;;1.12;100.00;98321.66;1605187;89;21026;-70
2022/02/25 18:15:04;;;;;;;29.27;15.73;;;;;;;1.13;100.00;98318.49;1604996;89;21115;-69
2022/02/25 18:17:31;;;;;;;29.30;15.60;;;;;;;1.14;100.00;98316.19;1599144;89;21058;-71
2022/02/25 18:19:58;;;;;;;24.30;13.40;;;;;;;1.16;100.00;98313.38;1591174;89;21534;-70
2022/02/25 18:22:25;;;;;;;26.77;14.83;;;;;;;1.15;100.00;98307.19;1593479;88;21074;-68
2022/02/25 18:24:52;;;;;;;27.90;15.13;;;;;;;1.15;100.00;98324.50;1588407;89;21129;-69
2022/02/25 18:27:19;;;;;;;28.10;14.60;;;;;;;1.15;100.00;98320.50;1600369;88;21128;-70
2022/02/25 18:29:46;;;;;;;26.53;14.10;;;;;;;1.13;100.00;98326.01;1597518;89;21090;-69
2022/02/25 18:32:13;;;;;;;26.57;14.47;;;;;;;1.12;100.00;98332.31;1600693;88;21026;-69
2022/02/25 18:34:41;;;;;;;25.77;14.30;;;;;;;1.09;100.00;98334.44;1638944;86;21070;-69
2022/02/25 18:37:08;;;;;;;28.13;13.90;;;;;;;1.04;100.00;98333.55;1658871;86;21548;-70
2022/02/25 18:39:35;;;;;;;24.57;13.53;;;;;;;1.03;100.00;98335.89;1637888;85;21552;-70
2022/02/25 18:42:04;;;;;;;24.30;13.27;;;;;;;1.04;100.00;98336.72;1642376;86;21063;-69
2022/02/25 18:44:32;;;;;;;24.93;13.00;;;;;;;1.02;100.00;98337.38;1660977;86;21044;-69
2022/02/25 18:47:00;;;;;;;27.10;13.13;;;;;;;1.02;100.00;98335.53;1645653;84;21916;-69
2022/02/25 18:49:27;;;;;;;25.50;13.57;;;;;;;1.02;100.00;98335.53;1637805;85;21042;-69
2022/02/25 18:51:54;;;;;;;25.87;13.47;;;;;;;1.05;100.00;98335.74;1647480;86;21067;-69
2022/02/25 18:54:21;;;;;;;27.93;13.80;;;;;;;1.05;100.00;98332.58;1639360;85;21536;-69
2022/02/25 18:56:49;;;;;;;27.10;13.33;;;;;;;1.08;100.00;98334.95;1646886;86;21046;-69
2022/02/25 18:59:16;;;;;;;26.50;13.83;;;;;;;1.09;100.00;98336.59;1645863;86;21540;-69
2022/02/25 19:01:45;;;;;;;26.00;12.63;;;;;;;1.10;100.00;98334.30;1637584;86;21079;-69
2022/02/25 19:04:12;;;;;;;25.37;12.70;;;;;;;1.10;100.00;98330.30;1650561;86;21054;-69
2022/02/25 19:06:40;;;;;;;27.07;13.97;;;;;;;1.11;100.00;98328.46;1641358;85;21559;-69
2022/02/25 19:09:10;;;;;;;25.70;14.17;;;;;;;1.12;100.00;98324.32;1654457;86;21032;-70
2022/02/25 19:11:37;;;;;;;25.83;13.40;;;;;;;1.14;100.00;98325.00;1591499;87;21035;-70
2022/02/25 19:14:05;;;;;;;26.30;13.80;;;;;;;1.16;100.00;98317.37;1591161;89;21117;-69
2022/02/25 19:16:32;;;;;;;26.57;15.10;;;;;;;1.14;100.00;98315.69;1643751;86;21091;-69
2022/02/25 19:18:59;;;;;;;27.90;14.47;;;;;;;1.13;100.00;98312.70;1652524;86;21097;-70
2022/02/25 19:21:27;;;;;;;26.83;14.23;;;;;;;1.12;100.00;98321.66;1645806;85;21512;-70
2022/02/25 19:23:54;;;;;;;29.60;16.00;;;;;;;1.10;100.00;98322.81;1663340;85;21063;-69
2022/02/25 19:26:21;;;;;;;29.40;16.13;;;;;;;1.08;100.00;98322.11;1647742;86;21047;-69
2022/02/25 19:28:48;;;;;;;26.17;14.40;;;;;;;1.04;100.00;98323.41;1642398;86;21058;-70
2022/02/25 19:31:16;;;;;;;24.87;13.63;;;;;;;1.01;100.00;98331.22;1631480;86;21031;-70
2022/02/25 19:33:43;;;;;;;26.17;13.40;;;;;;;1.04;100.00;98330.06;1646274;86;21050;-70
2022/02/25 19:36:10;;;;;;;29.07;15.40;;;;;;;1.06;100.00;98326.75;1647051;86;21039;-70
2022/02/25 19:38:39;;;;;;;29.50;14.70;;;;;;;1.07;100.00;98317.79;1655971;85;21027;-70
2022/02/25 19:41:06;;;;;;;26.93;13.37;;;;;;;1.10;100.00;98309.00;1655835;85;21118;-69